Time;durP1;ratioP1;P1;durP2;ratioP2;P2;SDS_P1;SDS_P2;PMS_P1;PMS_P2;Temp;Humidity;BMP_temperature;BMP_pressure;BME280_temperature;BME280_humidity;BME280_pressure;Samples;Min_cycle;Max_cycle;Signal;HPM_P1;HPM_P2
2022/11/18 00:00:31;;;;;;;;;;;;;;;12.11;54.47;99209.84;4980407;28;122054;-63
2022/11/18 00:02:57;;;;;;;;;;;;;;;12.12;54.22;99211.44;4979813;27;128334;-66
2022/11/18 00:05:23;;;;;;;;;;;;;;;12.11;54.38;99207.16;4979456;28;127268;-66
2022/11/18 00:07:49;;;;;;;;;;;;;;;12.10;54.42;99208.22;4980983;27;126406;-66
2022/11/18 00:10:15;;;;;;;;;;;;;;;12.10;54.36;99210.13;4980576;28;122609;-67
2022/11/18 00:15:25;;;;;;;;;;;;;;;12.07;54.49;99225.06;4976845;28;98935;-66
2022/11/18 00:17:51;;;;;;;;;;;;;;;12.09;54.26;99225.53;4980599;28;127040;-66
2022/11/18 00:20:17;;;;;;;;;;;;;;;12.09;54.38;99224.75;4980805;28;122058;-63
2022/11/18 00:22:44;;;;;;;;;;;;;;;12.08;54.28;99206.97;4979603;28;128017;-66
2022/11/18 00:25:10;;;;;;;;;;;;;;;12.08;54.41;99196.16;4960527;28;125894;-66
2022/11/18 00:27:36;;;;;;;;;;;;;;;12.06;54.46;99199.16;4980657;27;98179;-66
2022/11/18 00:30:02;;;;;;;;;;;;;;;12.07;54.31;99210.78;4979921;28;119931;-62
2022/11/18 00:32:28;;;;;;;;;;;;;;;12.07;54.25;99208.88;4978662;28;120818;-63
2022/11/18 00:34:54;;;;;;;;;;;;;;;12.07;54.32;99208.06;4979194;28;127976;-62
2022/11/18 00:37:20;;;;;;;;;;;;;;;12.06;54.16;99215.34;4960631;28;127649;-66
2022/11/18 00:39:46;;;;;;;;;;;;;;;12.06;54.23;99218.06;4978859;28;121879;-62
2022/11/18 00:44:56;;;;;;;;;;;;;;;12.05;54.38;99221.88;4976682;28;98051;-63
2022/11/18 00:47:22;;;;;;;;;;;;;;;12.04;54.25;99228.38;4979329;27;127678;-62
2022/11/18 00:49:48;;;;;;;;;;;;;;;12.03;54.26;99235.69;4961211;28;103573;-66
2022/11/18 00:52:14;;;;;;;;;;;;;;;12.03;54.38;99249.19;4979215;28;129098;-63
2022/11/18 00:54:40;;;;;;;;;;;;;;;12.03;54.24;99240.28;4977918;28;127637;-63
2022/11/18 00:57:06;;;;;;;;;;;;;;;12.02;54.27;99234.09;4978109;28;128303;-67
2022/11/18 00:59:32;;;;;;;;;;;;;;;12.02;54.23;99231.41;4965653;28;98422;-66
2022/11/18 01:01:58;;;;;;;;;;;;;;;12.02;54.27;99228.69;4976896;28;127376;-63
2022/11/18 01:04:24;;;;;;;;;;;;;;;12.02;54.48;99227.88;4979147;28;128184;-63
2022/11/18 01:06:50;;;;;;;;;;;;;;;12.02;54.32;99235.97;4978590;28;128107;-66
2022/11/18 01:09:15;;;;;;;;;;;;;;;12.01;54.32;99243.28;4957272;28;122693;-66
2022/11/18 01:14:26;;;;;;;;;;;;;;;12.00;54.27;99230.09;4976747;28;97905;-66
2022/11/18 01:16:55;;;;;;;;;;;;;;;11.99;54.26;99225.81;4976431;27;127182;-66
2022/11/18 01:19:22;;;;;;;;;;;;;;;11.98;54.27;99219.59;4958225;28;122012;-66
2022/11/18 01:21:48;;;;;;;;;;;;;;;11.98;54.42;99216.88;4979152;28;98458;-63
2022/11/18 01:24:14;;;;;;;;;;;;;;;11.97;54.51;99225.28;4979989;28;117614;-67
2022/11/18 01:26:40;;;;;;;;;;;;;;;11.97;54.43;99214.50;4980025;28;125635;-63
2022/11/18 01:29:06;;;;;;;;;;;;;;;11.96;54.24;99208.31;4977866;28;120999;-62
2022/11/18 01:31:32;;;;;;;;;;;;;;;11.96;54.23;99213.69;4978966;28;129116;-66
2022/11/18 01:33:58;;;;;;;;;;;;;;;11.94;54.37;99213.19;4977998;28;129495;-66
2022/11/18 01:36:26;;;;;;;;;;;;;;;11.95;54.29;99219.41;4978046;28;127944;-63
2022/11/18 01:38:52;;;;;;;;;;;;;;;11.92;54.37;99231.63;4977839;28;98372;-63
2022/11/18 01:41:23;;;;;;;;;;;;;;;11.93;54.34;99232.41;4978352;28;127839;-63
2022/11/18 01:43:50;;;;;;;;;;;;;;;11.93;54.49;99232.41;4958841;28;98753;-67
2022/11/18 01:46:17;;;;;;;;;;;;;;;11.92;54.49;99237.03;4977190;28;98452;-63
2022/11/18 01:48:44;;;;;;;;;;;;;;;11.90;54.34;99241.91;4962099;28;98300;-63
2022/11/18 01:51:12;;;;;;;;;;;;;;;11.89;54.38;99240.31;4957449;28;98638;-66
2022/11/18 01:53:40;;;;;;;;;;;;;;;11.91;54.28;99237.34;4959473;28;128839;-63
2022/11/18 01:56:11;;;;;;;;;;;;;;;11.89;54.23;99234.13;4965380;28;106416;-63
2022/11/18 01:58:45;;;;;;;;;;;;;;;11.89;54.21;99231.44;4961239;28;99042;-63
2022/11/18 02:01:11;;;;;;;;;;;;;;;11.88;54.34;99219.03;4943025;28;98559;-63
2022/11/18 02:03:37;;;;;;;;;;;;;;;11.87;54.29;99215.56;4959176;28;129458;-63
2022/11/18 02:06:03;;;;;;;;;;;;;;;11.86;54.37;99216.63;4979330;28;98777;-66
2022/11/18 02:08:29;;;;;;;;;;;;;;;11.86;54.49;99223.94;4961209;28;98732;-63
2022/11/18 02:10:55;;;;;;;;;;;;;;;11.84;54.38;99223.47;4960164;28;127021;-62
2022/11/18 02:15:54;;;;;;;;;;;;;;;11.83;54.27;99211.88;4982105;27;127715;-63
2022/11/18 02:18:46;;;;;;;;;;;;;;;11.83;54.35;99211.88;4978199;27;112740;-66
2022/11/18 02:21:38;;;;;;;;;;;;;;;11.84;54.46;99213.44;4966879;28;101403;-63
2022/11/18 02:24:27;;;;;;;;;;;;;;;11.83;54.66;99211.88;4965683;28;98995;-63
2022/11/18 02:27:13;;;;;;;;;;;;;;;11.82;54.28;99212.13;4982452;27;128126;-66
2022/11/18 02:29:47;;;;;;;;;;;;;;;11.82;54.23;99217.53;4963162;28;98751;-62
2022/11/18 02:32:43;;;;;;;;;;;;;;;11.82;54.28;99222.91;4961523;28;98549;-66
2022/11/18 02:35:11;;;;;;;;;;;;;;;11.80;54.21;99234.81;4956699;28;98934;-66
2022/11/18 02:37:59;;;;;;;;;;;;;;;11.80;54.22;99234.81;4962853;28;99067;-63
2022/11/18 02:40:28;;;;;;;;;;;;;;;11.80;54.30;99240.22;4967886;27;119645;-66
2022/11/18 02:43:03;;;;;;;;;;;;;;;11.79;54.38;99241.34;4980076;27;124786;-66
2022/11/18 02:45:29;;;;;;;;;;;;;;;11.79;54.36;99233.25;4982013;27;126789;-63
2022/11/18 02:47:55;;;;;;;;;;;;;;;11.78;54.35;99230.81;4950480;28;126794;-63
2022/11/18 02:50:22;;;;;;;;;;;;;;;11.78;54.30;99220.03;4964166;28;120516;-63
2022/11/18 02:52:49;;;;;;;;;;;;;;;11.78;54.37;99214.63;4966807;28;123805;-66
2022/11/18 02:55:15;;;;;;;;;;;;;;;11.78;54.13;99230.81;4943618;28;103794;-63
2022/11/18 02:57:41;;;;;;;;;;;;;;;11.76;54.38;99227.66;4981149;27;127430;-62
2022/11/18 03:00:07;;;;;;;;;;;;;;;11.75;54.40;99226.84;4947122;28;112374;-63
2022/11/18 03:02:44;;;;;;;;;;;;;;;11.76;54.30;99224.94;4966173;28;98980;-63
2022/11/18 03:05:24;;;;;;;;;;;;;;;11.74;54.23;99225.25;4981089;27;124844;-63
2022/11/18 03:07:53;;;;;;;;;;;;;;;11.75;54.35;99220.63;4961833;28;126609;-62
2022/11/18 03:10:19;;;;;;;;;;;;;;;11.74;54.30;99216.34;4948077;28;98071;-62
2022/11/18 03:12:49;;;;;;;;;;;;;;;11.72;54.37;99221.25;4980672;28;127170;-63
2022/11/18 03:15:31;;;;;;;;;;;;;;;11.73;54.30;99223.66;4959971;28;127125;-62
2022/11/18 03:17:59;;;;;;;;;;;;;;;11.72;54.29;99224.75;4979582;28;118215;-63
2022/11/18 03:20:28;;;;;;;;;;;;;;;11.72;54.34;99222.06;4982516;28;99435;-62
2022/11/18 03:23:10;;;;;;;;;;;;;;;11.72;54.20;99226.66;4956052;28;120501;-66
2022/11/18 03:25:45;;;;;;;;;;;;;;;11.71;54.36;99233.16;4957624;28;126694;-63
2022/11/18 03:28:27;;;;;;;;;;;;;;;11.72;54.22;99229.38;4980356;28;124943;-66
2022/11/18 03:31:00;;;;;;;;;;;;;;;11.70;54.25;99235.03;4961836;28;97894;-66
2022/11/18 03:33:31;;;;;;;;;;;;;;;11.69;54.37;99229.97;4946554;28;115388;-66
2022/11/18 03:35:57;;;;;;;;;;;;;;;11.69;54.29;99232.66;4945114;28;125241;-66
2022/11/18 03:38:28;;;;;;;;;;;;;;;11.68;54.19;99228.38;4963483;28;128779;-62
2022/11/18 03:40:57;;;;;;;;;;;;;;;11.67;54.31;99230.28;4963432;28;98694;-62
2022/11/18 03:43:25;;;;;;;;;;;;;;;11.66;54.23;99228.66;4980367;28;98399;-66
2022/11/18 03:46:07;;;;;;;;;;;;;;;11.67;54.29;99238.38;4962565;28;99192;-66
2022/11/18 03:48:40;;;;;;;;;;;;;;;11.66;54.23;99244.84;4945766;28;98823;-66
2022/11/18 03:51:10;;;;;;;;;;;;;;;11.65;54.22;99229.78;4964612;28;97889;-62
2022/11/18 03:53:39;;;;;;;;;;;;;;;11.66;54.25;99233.25;4960908;28;104691;-63
2022/11/18 03:56:28;;;;;;;;;;;;;;;11.65;54.32;99227.06;4980893;28;98017;-62
2022/11/18 03:59:08;;;;;;;;;;;;;;;11.65;54.26;99234.38;4978876;28;127930;-66
2022/11/18 04:01:36;;;;;;;;;;;;;;;11.64;54.20;99238.19;4964075;28;121818;-66
2022/11/18 04:04:01;;;;;;;;;;;;;;;11.64;54.25;99238.19;4979108;28;117677;-64
2022/11/18 04:06:37;;;;;;;;;;;;;;;11.64;54.28;99238.19;4979521;27;101242;-66
2022/11/18 04:09:09;;;;;;;;;;;;;;;11.62;54.27;99235.78;4959607;28;98408;-66
2022/11/18 04:14:24;;;;;;;;;;;;;;;11.62;54.25;99234.97;4979103;27;98371;-63
2022/11/18 04:16:52;;;;;;;;;;;;;;;11.62;54.32;99248.47;4964638;28;127466;-62
2022/11/18 04:19:18;;;;;;;;;;;;;;;11.61;54.39;99254.97;4980447;28;97949;-62
2022/11/18 04:21:44;;;;;;;;;;;;;;;11.61;54.28;99260.38;4981376;28;98166;-66
2022/11/18 04:24:10;;;;;;;;;;;;;;;11.60;54.37;99261.47;4980357;28;127565;-66
2022/11/18 04:26:36;;;;;;;;;;;;;;;11.60;54.20;99266.88;4979293;28;124347;-62
2022/11/18 04:29:02;;;;;;;;;;;;;;;11.59;54.27;99266.06;4972376;28;128009;-66
2022/11/18 04:31:28;;;;;;;;;;;;;;;11.59;54.22;99268.75;4982117;27;97954;-62
2022/11/18 04:33:54;;;;;;;;;;;;;;;11.59;54.26;99273.34;4981946;28;98510;-67
2022/11/18 04:36:20;;;;;;;;;;;;;;;11.59;54.22;99273.34;4980577;27;125853;-66
2022/11/18 04:38:46;;;;;;;;;;;;;;;11.59;54.22;99276.06;4961505;28;97971;-66
2022/11/18 04:41:12;;;;;;;;;;;;;;;11.58;54.31;99274.47;4962448;28;99668;-63
2022/11/18 04:43:38;;;;;;;;;;;;;;;11.58;54.24;99271.78;4958100;28;129433;-66
2022/11/18 04:46:04;;;;;;;;;;;;;;;11.57;54.21;99280.97;4981461;28;128185;-66
2022/11/18 04:48:30;;;;;;;;;;;;;;;11.57;54.25;99275.56;4961953;28;127599;-66
2022/11/18 04:50:56;;;;;;;;;;;;;;;11.55;54.26;99286.66;4978681;28;122603;-66
2022/11/18 04:53:22;;;;;;;;;;;;;;;11.56;54.20;99282.88;4979328;28;99354;-66
2022/11/18 04:55:48;;;;;;;;;;;;;;;11.55;54.35;99292.06;4979556;28;128227;-66
2022/11/18 04:58:14;;;;;;;;;;;;;;;11.55;54.18;99292.06;4979962;28;125560;-67
2022/11/18 05:00:40;;;;;;;;;;;;;;;11.53;54.16;99295.06;4977961;28;123428;-63
2022/11/18 05:03:06;;;;;;;;;;;;;;;11.54;53.92;99296.66;4977927;28;129000;-63
2022/11/18 05:05:33;;;;;;;;;;;;;;;11.54;54.23;99302.06;4978367;28;127072;-62
2022/11/18 05:07:59;;;;;;;;;;;;;;;11.53;54.25;99297.75;4962736;28;126426;-62
2022/11/18 05:10:25;;;;;;;;;;;;;;;11.54;54.32;99304.75;4977855;27;117603;-63
2022/11/18 05:12:51;;;;;;;;;;;;;;;11.54;54.16;99301.25;4978023;27;112053;-66
2022/11/18 05:15:22;;;;;;;;;;;;;;;11.52;54.20;99298.88;4980153;27;98982;-66
2022/11/18 05:17:48;;;;;;;;;;;;;;;11.52;54.26;99306.97;4978575;28;98873;-66
2022/11/18 05:20:14;;;;;;;;;;;;;;;11.52;54.14;99315.06;4978593;28;112968;-66
2022/11/18 05:22:40;;;;;;;;;;;;;;;11.52;54.29;99314.28;4979727;27;100552;-63
2022/11/18 05:25:07;;;;;;;;;;;;;;;11.51;54.15;99307.25;4976495;27;123452;-66
2022/11/18 05:27:32;;;;;;;;;;;;;;;11.51;54.25;99316.16;4971211;28;98351;-66
2022/11/18 05:29:58;;;;;;;;;;;;;;;11.50;54.05;99311.84;4976265;27;122983;-66
2022/11/18 05:32:24;;;;;;;;;;;;;;;11.50;54.30;99314.56;4975582;28;126966;-62
2022/11/18 05:34:50;;;;;;;;;;;;;;;11.49;54.21;99312.97;4976018;27;99350;-63
2022/11/18 05:37:16;;;;;;;;;;;;;;;11.49;54.24;99318.34;4973919;27;126156;-62
2022/11/18 05:39:42;;;;;;;;;;;;;;;11.49;54.24;99314.88;4974417;27;123018;-63
2022/11/18 05:44:54;;;;;;;;;;;;;;;11.47;54.31;99319.75;4974549;28;98038;-66
2022/11/18 05:47:20;;;;;;;;;;;;;;;11.48;54.22;99316.75;4975720;27;126797;-67
2022/11/18 05:49:46;;;;;;;;;;;;;;;11.46;54.27;99327.03;4976901;27;106722;-63
2022/11/18 05:52:11;;;;;;;;;;;;;;;11.45;54.19;99328.16;4974223;28;129769;-62
2022/11/18 05:54:39;;;;;;;;;;;;;;;11.45;54.26;99330.84;4973918;27;127875;-63
2022/11/18 05:57:05;;;;;;;;;;;;;;;11.44;54.26;99328.47;4955941;28;123344;-62
2022/11/18 05:59:31;;;;;;;;;;;;;;;11.43;54.22;99327.63;4975635;28;121724;-66
2022/11/18 06:02:00;;;;;;;;;;;;;;;11.43;54.10;99334.94;4980029;28;99290;-66
2022/11/18 06:04:33;;;;;;;;;;;;;;;11.43;54.12;99346.53;4960878;28;98582;-62
2022/11/18 06:07:03;;;;;;;;;;;;;;;11.41;54.27;99334.47;4975105;27;107434;-62
2022/11/18 06:09:31;;;;;;;;;;;;;;;11.41;54.17;99351.44;4977132;27;112617;-66
2022/11/18 06:11:57;;;;;;;;;;;;;;;11.40;54.54;99355.25;4978609;27;119320;-62
2022/11/18 06:14:47;;;;;;;;;;;;;;;11.40;54.09;99360.63;4962791;27;119798;-66
2022/11/18 06:17:19;;;;;;;;;;;;;;;11.39;54.26;99364.41;4981261;27;104172;-66
2022/11/18 06:19:45;;;;;;;;;;;;;;;11.37;54.15;99363.94;4979602;28;98070;-62
2022/11/18 06:22:11;;;;;;;;;;;;;;;11.38;54.27;99375.53;4977486;28;128718;-62
2022/11/18 06:24:37;;;;;;;;;;;;;;;11.38;54.18;99378.22;4978756;28;128123;-66
2022/11/18 06:27:03;;;;;;;;;;;;;;;11.36;54.48;99375.81;4966883;28;126866;-62
2022/11/18 06:29:29;;;;;;;;;;;;;;;11.36;54.14;99373.13;4977989;28;119798;-62
2022/11/18 06:31:55;;;;;;;;;;;;;;;11.37;54.31;99384.72;4955247;28;128212;-66
2022/11/18 06:34:21;;;;;;;;;;;;;;;11.34;54.27;99396.91;4979468;28;113100;-62
2022/11/18 06:36:47;;;;;;;;;;;;;;;11.34;54.33;99401.50;4979235;28;98589;-62
2022/11/18 06:39:12;;;;;;;;;;;;;;;11.33;54.21;99402.59;4977370;28;105403;-63
2022/11/18 06:41:38;;;;;;;;;;;;;;;11.33;54.22;99408.00;4976914;28;127050;-64
2022/11/18 06:44:04;;;;;;;;;;;;;;;11.31;54.00;99409.06;4977918;28;128246;-62
2022/11/18 06:49:15;;;;;;;;;;;;;;;11.30;54.02;99409.38;4943880;28;98023;-66
2022/11/18 06:51:41;;;;;;;;;;;;;;;11.29;54.15;99397.78;4956250;28;128733;-66
2022/11/18 06:54:07;;;;;;;;;;;;;;;11.29;54.23;99421.28;4957463;28;98299;-66
2022/11/18 06:56:33;;;;;;;;;;;;;;;11.29;54.15;99415.88;4978140;28;127316;-66
2022/11/18 06:58:59;;;;;;;;;;;;;;;11.28;54.25;99422.38;4959188;28;118340;-62
2022/11/18 07:01:27;;;;;;;;;;;;;;;11.26;54.12;99419.97;4978580;28;128412;-66
2022/11/18 07:03:53;;;;;;;;;;;;;;;11.26;54.04;99425.34;4977964;28;98984;-62
2022/11/18 07:06:20;;;;;;;;;;;;;;;11.26;53.96;99413.78;4979066;27;127559;-62
2022/11/18 07:08:46;;;;;;;;;;;;;;;11.26;54.17;99433.44;4979419;27;120011;-66
2022/11/18 07:11:17;;;;;;;;;;;;;;;11.27;54.34;99431.56;4981685;28;128671;-66
2022/11/18 07:13:44;;;;;;;;;;;;;;;11.27;54.15;99434.25;4981886;27;128456;-62
2022/11/18 07:16:12;;;;;;;;;;;;;;;11.25;54.35;99445.34;4981541;28;98662;-62
2022/11/18 07:18:38;;;;;;;;;;;;;;;11.25;54.32;99444.56;4982678;27;97875;-66
2022/11/18 07:21:05;;;;;;;;;;;;;;;11.26;53.96;99451.53;4982317;28;98538;-62
2022/11/18 07:23:31;;;;;;;;;;;;;;;11.25;53.96;99447.25;4981154;28;125198;-66
2022/11/18 07:25:57;;;;;;;;;;;;;;;11.23;54.22;99452.13;4984147;27;98605;-66
2022/11/18 07:28:23;;;;;;;;;;;;;;;11.24;53.99;99453.75;4981574;28;98386;-66
2022/11/18 07:30:49;;;;;;;;;;;;;;;11.23;54.13;99452.91;4982397;28;121023;-66
2022/11/18 07:33:15;;;;;;;;;;;;;;;11.23;54.29;99458.31;4979469;27;122213;-66
2022/11/18 07:35:41;;;;;;;;;;;;;;;11.22;54.14;99461.31;4981933;28;99950;-66
2022/11/18 07:38:07;;;;;;;;;;;;;;;11.21;54.13;99463.22;4980550;27;122564;-66
2022/11/18 07:40:33;;;;;;;;;;;;;;;11.21;54.23;99467.81;4970449;28;128153;-62
2022/11/18 07:42:59;;;;;;;;;;;;;;;11.20;54.22;99475.13;4973405;28;128480;-66
2022/11/18 07:45:25;;;;;;;;;;;;;;;11.20;54.17;99477.81;4980515;28;127532;-66
2022/11/18 07:47:51;;;;;;;;;;;;;;;11.19;54.24;99478.88;4980611;28;119003;-66
2022/11/18 07:50:17;;;;;;;;;;;;;;;11.19;54.32;99483.47;4948430;28;98395;-63
2022/11/18 07:52:43;;;;;;;;;;;;;;;11.18;54.04;99481.88;4978883;28;129121;-66
2022/11/18 07:55:09;;;;;;;;;;;;;;;11.17;54.11;99481.09;4980427;28;127394;-66
2022/11/18 07:57:35;;;;;;;;;;;;;;;11.17;54.18;99488.38;4979636;28;117294;-66
2022/11/18 08:00:03;;;;;;;;;;;;;;;11.16;54.31;99484.06;4980912;28;128898;-66
2022/11/18 08:02:29;;;;;;;;;;;;;;;11.14;54.13;99494.38;4980809;28;98610;-62
2022/11/18 08:04:54;;;;;;;;;;;;;;;11.15;54.30;99498.66;4980812;28;127320;-66
2022/11/18 08:07:20;;;;;;;;;;;;;;;11.13;54.28;99493.56;4981004;27;120426;-66
2022/11/18 08:09:46;;;;;;;;;;;;;;;11.13;54.03;99496.25;4979709;28;128144;-62
2022/11/18 08:12:12;;;;;;;;;;;;;;;11.13;54.05;99495.47;4979440;28;127291;-62
2022/11/18 08:14:38;;;;;;;;;;;;;;;11.13;54.22;99506.25;4979098;28;125617;-62
2022/11/18 08:17:04;;;;;;;;;;;;;;;11.13;53.93;99511.66;4980265;28;121622;-66
2022/11/18 08:19:32;;;;;;;;;;;;;;;11.10;53.96;99498.75;4945606;28;104805;-63
2022/11/18 08:21:58;;;;;;;;;;;;;;;11.11;53.94;99503.84;4978475;28;126315;-66
2022/11/18 08:24:24;;;;;;;;;;;;;;;11.12;53.77;99496.53;4980835;28;127587;-66
2022/11/18 08:26:50;;;;;;;;;;;;;;;11.10;53.90;99506.84;4980520;28;123113;-62
2022/11/18 08:29:16;;;;;;;;;;;;;;;11.10;53.90;99512.22;4978716;28;114497;-66
2022/11/18 08:31:42;;;;;;;;;;;;;;;11.09;53.96;99511.44;4980686;28;128002;-66
2022/11/18 08:34:08;;;;;;;;;;;;;;;11.08;54.05;99531.38;4981165;28;97978;-66
2022/11/18 08:36:35;;;;;;;;;;;;;;;11.09;54.23;99516.03;4961036;28;120343;-63
2022/11/18 08:39:02;;;;;;;;;;;;;;;11.07;54.06;99530.59;4961325;28;98605;-62
2022/11/18 08:41:35;;;;;;;;;;;;;;;11.07;54.01;99517.09;4981074;28;102556;-61
2022/11/18 08:44:01;;;;;;;;;;;;;;;11.09;54.11;99518.72;4963786;28;99790;-63
2022/11/18 08:46:28;;;;;;;;;;;;;;;11.09;53.80;99526.81;4978126;28;118924;-61
2022/11/18 08:48:54;;;;;;;;;;;;;;;11.09;53.94;99526.81;4980285;28;98248;-63
2022/11/18 08:51:20;;;;;;;;;;;;;;;11.07;53.79;99514.41;4980837;28;113499;-62
2022/11/18 08:53:46;;;;;;;;;;;;;;;11.10;54.04;99525.72;4979879;28;128113;-66
2022/11/18 08:56:16;;;;;;;;;;;;;;;11.10;54.00;99518.41;4955007;28;121648;-63
2022/11/18 08:58:42;;;;;;;;;;;;;;;11.10;53.75;99531.91;4964934;28;109285;-66
2022/11/18 09:01:08;;;;;;;;;;;;;;;11.10;53.67;99526.50;4978610;28;126379;-62
2022/11/18 09:03:34;;;;;;;;;;;;;;;11.10;53.66;99531.91;4981511;28;98334;-66
2022/11/18 09:06:14;;;;;;;;;;;;;;;11.11;54.16;99527.31;4981101;27;119026;-66
2022/11/18 09:08:40;;;;;;;;;;;;;;;11.10;53.70;99533.81;4980640;28;98542;-62
2022/11/18 09:11:11;;;;;;;;;;;;;;;11.07;53.89;99535.97;4978419;28;127984;-62
2022/11/18 09:13:37;;;;;;;;;;;;;;;11.09;53.91;99532.22;4980634;28;98316;-62
2022/11/18 09:16:03;;;;;;;;;;;;;;;11.07;53.76;99544.06;4980793;28;97883;-62
2022/11/18 09:18:29;;;;;;;;;;;;;;;11.07;53.96;99549.47;4980570;28;98483;-66
2022/11/18 09:20:56;;;;;;;;;;;;;;;11.05;54.02;99548.16;4980624;28;99091;-62
2022/11/18 09:23:21;;;;;;;;;;;;;;;11.05;53.93;99559.75;4978875;28;98006;-65
2022/11/18 09:25:47;;;;;;;;;;;;;;;11.05;53.79;99570.53;4970458;28;111231;-66
2022/11/18 09:28:13;;;;;;;;;;;;;;;11.05;54.10;99564.34;4978983;27;119768;-62
2022/11/18 09:30:39;;;;;;;;;;;;;;;11.04;53.78;99563.56;4979015;28;127304;-66
2022/11/18 09:33:06;;;;;;;;;;;;;;;11.05;53.64;99575.94;4978901;28;128513;-66
2022/11/18 09:35:32;;;;;;;;;;;;;;;11.06;53.80;99577.53;4981243;28;98252;-63
2022/11/18 09:37:58;;;;;;;;;;;;;;;11.05;53.72;99578.63;4978791;28;99075;-66
2022/11/18 09:40:24;;;;;;;;;;;;;;;11.06;54.06;99569.44;4980512;28;127671;-63
2022/11/18 09:43:07;;;;;;;;;;;;;;;11.07;54.10;99581.81;4979749;28;126665;-63
2022/11/18 09:45:36;;;;;;;;;;;;;;;11.06;53.85;99580.22;4958804;28;121651;-63
2022/11/18 09:48:12;;;;;;;;;;;;;;;11.06;53.87;99582.94;4963055;28;125939;-62
2022/11/18 09:50:38;;;;;;;;;;;;;;;11.05;53.71;99583.22;4945743;28;116331;-66
2022/11/18 09:53:22;;;;;;;;;;;;;;;11.09;53.93;99589.66;4979811;28;127240;-67
2022/11/18 09:55:48;;;;;;;;;;;;;;;11.10;53.83;99587.75;4980513;28;98065;-67
2022/11/18 09:58:35;;;;;;;;;;;;;;;11.09;53.62;99586.94;4981170;28;98987;-67
2022/11/18 10:01:01;;;;;;;;;;;;;;;11.15;53.56;99596.56;4960431;28;98247;-66
2022/11/18 10:03:29;;;;;;;;;;;;;;;11.17;53.94;99596.28;4966079;28;98060;-67
2022/11/18 10:06:20;;;;;;;;;;;;;;;11.13;53.63;99593.38;4979967;27;98069;-64
2022/11/18 10:08:58;;;;;;;;;;;;;;;11.09;53.92;99597.75;4954371;28;98176;-64
2022/11/18 10:11:25;;;;;;;;;;;;;;;11.09;53.91;99607.72;4978111;28;128207;-67
2022/11/18 10:13:51;;;;;;;;;;;;;;;11.10;53.70;99595.84;4942526;28;113370;-64
2022/11/18 10:16:29;;;;;;;;;;;;;;;11.13;53.80;99598.75;4981510;28;98078;-63
2022/11/18 10:19:19;;;;;;;;;;;;;;;11.15;53.57;99596.56;4962824;28;126074;-67
2022/11/18 10:22:04;;;;;;;;;;;;;;;11.20;53.68;99595.69;4964493;28;98389;-67
2022/11/18 10:24:34;;;;;;;;;;;;;;;11.24;53.58;99602.91;4979939;28;98080;-67
2022/11/18 10:27:01;;;;;;;;;;;;;;;11.29;53.27;99613.63;4980699;27;97957;-64
2022/11/18 10:29:27;;;;;;;;;;;;;;;11.28;53.46;99622.81;4978295;28;99042;-67
2022/11/18 10:32:07;;;;;;;;;;;;;;;11.31;53.66;99621.41;4977471;28;128829;-67
2022/11/18 10:34:34;;;;;;;;;;;;;;;11.34;53.53;99615.44;4979411;28;98192;-67
2022/11/18 10:37:05;;;;;;;;;;;;;;;11.41;53.53;99615.88;4976285;28;113778;-67
2022/11/18 10:39:31;;;;;;;;;;;;;;;11.45;53.29;99624.19;4979549;28;99113;-67
2022/11/18 10:42:04;;;;;;;;;;;;;;;11.40;53.51;99624.28;4981079;28;128444;-64
2022/11/18 10:44:38;;;;;;;;;;;;;;;11.39;53.66;99625.34;4982860;28;98202;-65
2022/11/18 10:47:25;;;;;;;;;;;;;;;11.35;53.53;99621.63;4962764;28;98187;-68
2022/11/18 10:49:51;;;;;;;;;;;;;;;11.38;53.58;99640.75;4981758;27;98529;-67
2022/11/18 10:52:17;;;;;;;;;;;;;;;11.42;53.46;99622.06;4982711;28;98275;-67
2022/11/18 10:54:43;;;;;;;;;;;;;;;11.47;53.41;99630.09;4982724;28;126584;-67
2022/11/18 10:57:22;;;;;;;;;;;;;;;11.53;53.33;99631.63;4982363;28;115034;-65
2022/11/18 10:59:55;;;;;;;;;;;;;;;11.54;52.92;99635.91;4965194;28;99199;-65
2022/11/18 11:02:39;;;;;;;;;;;;;;;11.56;53.32;99639.13;4981152;28;124627;-68
2022/11/18 11:05:21;;;;;;;;;;;;;;;11.58;53.31;99641.53;4970253;27;98045;-68
2022/11/18 11:08:20;;;;;;;;;;;;;;;11.57;53.37;99646.13;4961245;28;106918;-65
2022/11/18 11:10:54;;;;;;;;;;;;;;;11.56;53.46;99649.94;4964234;28;118753;-68
2022/11/18 11:13:20;;;;;;;;;;;;;;;11.57;53.37;99650.72;4963152;28;98030;-65
2022/11/18 11:15:46;;;;;;;;;;;;;;;11.57;53.46;99650.72;4981451;28;127307;-67
2022/11/18 11:18:41;;;;;;;;;;;;;;;11.59;53.36;99657.41;4961671;28;121424;-66
2022/11/18 11:21:17;;;;;;;;;;;;;;;11.59;53.38;99657.41;4953647;28;98805;-65
2022/11/18 11:23:43;;;;;;;;;;;;;;;11.55;53.63;99664.50;4981948;28;109652;-67
2022/11/18 11:26:33;;;;;;;;;;;;;;;11.52;53.38;99675.91;4961495;28;97990;-64
2022/11/18 11:29:23;;;;;;;;;;;;;;;11.49;53.34;99676.47;4978796;28;98314;-65
2022/11/18 11:32:13;;;;;;;;;;;;;;;11.47;53.55;99679.47;4982528;28;98188;-67
2022/11/18 11:34:56;;;;;;;;;;;;;;;11.44;53.63;99676.56;4981351;28;98265;-64
2022/11/18 11:37:35;;;;;;;;;;;;;;;11.41;53.67;99677.94;4960708;28;98810;-67
2022/11/18 11:40:28;;;;;;;;;;;;;;;11.38;53.76;99677.72;4981034;27;99034;-67
2022/11/18 11:42:58;;;;;;;;;;;;;;;11.34;53.57;99685.59;4981951;28;98490;-64
2022/11/18 11:45:35;;;;;;;;;;;;;;;11.31;53.80;99683.47;4967652;28;104687;-63
2022/11/18 11:48:20;;;;;;;;;;;;;;;11.27;53.62;99699.44;4965279;28;98114;-64
2022/11/18 11:51:02;;;;;;;;;;;;;;;11.23;53.84;99703.00;4964687;27;98015;-67
2022/11/18 11:53:28;;;;;;;;;;;;;;;11.18;53.75;99706.56;4946592;28;98553;-63
2022/11/18 11:56:22;;;;;;;;;;;;;;;11.15;53.96;99707.16;4981144;28;101299;-64
2022/11/18 11:58:54;;;;;;;;;;;;;;;11.09;53.68;99708.31;4978397;28;126731;-67
2022/11/18 12:01:30;;;;;;;;;;;;;;;11.05;53.76;99720.78;4979828;28;97885;-67
2022/11/18 12:04:01;;;;;;;;;;;;;;;11.00;54.10;99721.63;4964013;28;98671;-63
2022/11/18 12:06:27;;;;;;;;;;;;;;;10.97;53.97;99726.81;4965543;28;98745;-64
2022/11/18 12:09:25;;;;;;;;;;;;;;;10.94;53.80;99727.38;4979395;28;127452;-67
2022/11/18 12:11:59;;;;;;;;;;;;;;;10.91;53.95;99744.91;4980127;28;98076;-66
2022/11/18 12:14:34;;;;;;;;;;;;;;;10.87;53.83;99738.50;4963393;28;98433;-67
2022/11/18 12:17:10;;;;;;;;;;;;;;;10.86;53.99;99742.28;4960974;28;126940;-67
2022/11/18 12:19:37;;;;;;;;;;;;;;;10.83;54.13;99756.34;4964619;28;99664;-64
2022/11/18 12:22:04;;;;;;;;;;;;;;;10.82;53.77;99752.03;4959148;28;111617;-64
2022/11/18 12:24:42;;;;;;;;;;;;;;;10.82;54.07;99747.44;4981016;28;99004;-64
2022/11/18 12:27:08;;;;;;;;;;;;;;;10.80;53.92;99744.22;4981170;28;99063;-67
2022/11/18 12:29:37;;;;;;;;;;;;;;;10.82;54.28;99743.94;4982673;28;98819;-67
2022/11/18 12:32:03;;;;;;;;;;;;;;;10.81;53.91;99753.13;4981836;28;97940;-63
2022/11/18 12:34:41;;;;;;;;;;;;;;;10.80;53.99;99751.50;4948774;28;121489;-66
2022/11/18 12:37:22;;;;;;;;;;;;;;;10.78;54.03;99742.91;4963016;28;127648;-64
2022/11/18 12:39:54;;;;;;;;;;;;;;;10.77;54.02;99742.13;4981964;28;97925;-64
2022/11/18 12:45:47;;;;;;;;;;;;;;;10.74;53.84;99739.19;4978974;28;98038;-64
2022/11/18 12:48:22;;;;;;;;;;;;;;;10.73;53.90;99749.16;4980621;28;98468;-67
2022/11/18 12:50:53;;;;;;;;;;;;;;;10.72;53.82;99749.44;4979177;28;97858;-67
2022/11/18 12:53:33;;;;;;;;;;;;;;;10.72;53.90;99746.75;4939293;28;121007;-64
2022/11/18 12:55:59;;;;;;;;;;;;;;;10.69;54.02;99741.91;4962556;28;98446;-67
2022/11/18 12:58:25;;;;;;;;;;;;;;;10.66;54.03;99746.00;4980279;28;105519;-67
2022/11/18 13:01:04;;;;;;;;;;;;;;;10.66;53.88;99748.69;4981100;28;100766;-67
2022/11/18 13:03:30;;;;;;;;;;;;;;;10.66;54.28;99747.91;4980169;27;97709;-67
2022/11/18 13:06:02;;;;;;;;;;;;;;;10.64;54.05;99745.47;4980595;28;99554;-64
2022/11/18 13:08:28;;;;;;;;;;;;;;;10.63;54.23;99753.84;4946462;28;98338;-63
2022/11/18 13:17:50;;;;;;;;;;;;;;;10.60;53.71;99744.44;4964389;28;98225;-67
2022/11/18 13:19:24;;;;;;;;;;;;;;;10.56;54.05;99748.78;4980769;28;98305;-64
2022/11/18 13:24:49;;;;;;;;;;;;;;;10.53;54.01;99754.72;4978226;28;98120;-67